sensor_id;sensor_type;location;lat;lon;timestamp;P1;durP1;ratioP1;P2;durP2;ratioP2
38787;SDS011;24536;45.488;12.238;2022-10-28T00:00:26;21.58;;;15.27;;
38787;SDS011;24536;45.488;12.238;2022-10-28T00:02:52;24.10;;;16.08;;
38787;SDS011;24536;45.488;12.238;2022-10-28T00:05:18;22.48;;;14.48;;
38787;SDS011;24536;45.488;12.238;2022-10-28T00:07:43;21.52;;;15.32;;
38787;SDS011;24536;45.488;12.238;2022-10-28T00:10:09;16.40;;;12.40;;
38787;SDS011;24536;45.488;12.238;2022-10-28T00:12:35;18.98;;;13.65;;
38787;SDS011;24536;45.488;12.238;2022-10-28T00:15:02;19.83;;;14.30;;
38787;SDS011;24536;45.488;12.238;2022-10-28T00:17:28;17.75;;;13.35;;
38787;SDS011;24536;45.488;12.238;2022-10-28T00:19:54;25.95;;;14.13;;
38787;SDS011;24536;45.488;12.238;2022-10-28T00:22:20;21.23;;;12.93;;
38787;SDS011;24536;45.488;12.238;2022-10-28T00:24:45;19.30;;;12.15;;
38787;SDS011;24536;45.488;12.238;2022-10-28T00:27:11;18.25;;;12.55;;
38787;SDS011;24536;45.488;12.238;2022-10-28T00:29:37;19.55;;;12.35;;
38787;SDS011;24536;45.488;12.238;2022-10-28T00:32:02;19.45;;;12.38;;
38787;SDS011;24536;45.488;12.238;2022-10-28T00:34:28;19.95;;;13.05;;
38787;SDS011;24536;45.488;12.238;2022-10-28T00:36:54;18.13;;;11.73;;
38787;SDS011;24536;45.488;12.238;2022-10-28T00:39:21;18.67;;;12.13;;
38787;SDS011;24536;45.488;12.238;2022-10-28T00:41:49;19.48;;;12.30;;
38787;SDS011;24536;45.488;12.238;2022-10-28T00:47:29;16.58;;;12.07;;
38787;SDS011;24536;45.488;12.238;2022-10-28T00:50:36;20.15;;;12.07;;
38787;SDS011;24536;45.488;12.238;2022-10-28T00:53:14;17.55;;;12.02;;
38787;SDS011;24536;45.488;12.238;2022-10-28T00:55:46;21.25;;;12.63;;
38787;SDS011;24536;45.488;12.238;2022-10-28T00:58:13;17.17;;;12.32;;
38787;SDS011;24536;45.488;12.238;2022-10-28T01:00:40;17.15;;;11.32;;
38787;SDS011;24536;45.488;12.238;2022-10-28T01:03:06;17.17;;;11.38;;
38787;SDS011;24536;45.488;12.238;2022-10-28T01:05:32;18.50;;;12.05;;
38787;SDS011;24536;45.488;12.238;2022-10-28T01:08:01;20.63;;;12.00;;
38787;SDS011;24536;45.488;12.238;2022-10-28T01:16:18;17.85;;;11.70;;
38787;SDS011;24536;45.488;12.238;2022-10-28T01:28:08;16.63;;;11.23;;
38787;SDS011;24536;45.488;12.238;2022-10-28T01:41:16;15.43;;;10.15;;
38787;SDS011;24536;45.488;12.238;2022-10-28T01:43:35;17.67;;;11.07;;
38787;SDS011;24536;45.488;12.238;2022-10-28T01:46:14;15.43;;;10.65;;
38787;SDS011;24536;45.488;12.238;2022-10-28T01:49:30;17.70;;;9.73;;
38787;SDS011;24536;45.488;12.238;2022-10-28T01:51:45;17.40;;;9.68;;
38787;SDS011;24536;45.488;12.238;2022-10-28T01:54:15;13.57;;;9.70;;
38787;SDS011;24536;45.488;12.238;2022-10-28T01:56:44;20.23;;;10.85;;
38787;SDS011;24536;45.488;12.238;2022-10-28T01:59:13;14.85;;;10.15;;
38787;SDS011;24536;45.488;12.238;2022-10-28T02:01:43;13.77;;;9.05;;
38787;SDS011;24536;45.488;12.238;2022-10-28T02:04:08;13.60;;;8.48;;
38787;SDS011;24536;45.488;12.238;2022-10-28T02:06:34;13.30;;;8.75;;
38787;SDS011;24536;45.488;12.238;2022-10-28T02:09:39;11.48;;;8.38;;
38787;SDS011;24536;45.488;12.238;2022-10-28T02:12:20;12.88;;;9.40;;
38787;SDS011;24536;45.488;12.238;2022-10-28T02:15:03;10.82;;;8.45;;
38787;SDS011;24536;45.488;12.238;2022-10-28T02:20:54;14.75;;;9.18;;
38787;SDS011;24536;45.488;12.238;2022-10-28T02:23:39;11.65;;;8.77;;
38787;SDS011;24536;45.488;12.238;2022-10-28T02:26:11;12.82;;;8.88;;
38787;SDS011;24536;45.488;12.238;2022-10-28T02:28:55;14.23;;;9.00;;
38787;SDS011;24536;45.488;12.238;2022-10-28T02:31:34;14.63;;;8.60;;
38787;SDS011;24536;45.488;12.238;2022-10-28T02:34:08;13.80;;;8.90;;
38787;SDS011;24536;45.488;12.238;2022-10-28T02:36:39;11.32;;;8.60;;
38787;SDS011;24536;45.488;12.238;2022-10-28T02:39:08;13.48;;;8.73;;
38787;SDS011;24536;45.488;12.238;2022-10-28T02:41:37;13.35;;;8.48;;
38787;SDS011;24536;45.488;12.238;2022-10-28T02:44:08;10.60;;;8.38;;
38787;SDS011;24536;45.488;12.238;2022-10-28T02:46:38;13.95;;;9.00;;
38787;SDS011;24536;45.488;12.238;2022-10-28T02:49:08;10.68;;;7.80;;
38787;SDS011;24536;45.488;12.238;2022-10-28T02:51:37;11.27;;;8.50;;
38787;SDS011;24536;45.488;12.238;2022-10-28T02:56:37;12.73;;;8.43;;
38787;SDS011;24536;45.488;12.238;2022-10-28T02:59:10;10.65;;;7.82;;
38787;SDS011;24536;45.488;12.238;2022-10-28T03:01:37;10.45;;;7.25;;
38787;SDS011;24536;45.488;12.238;2022-10-28T03:04:03;10.38;;;7.35;;
38787;SDS011;24536;45.488;12.238;2022-10-28T03:06:29;11.25;;;7.55;;
38787;SDS011;24536;45.488;12.238;2022-10-28T03:08:55;12.20;;;7.30;;
38787;SDS011;24536;45.488;12.238;2022-10-28T03:11:21;8.98;;;6.53;;
38787;SDS011;24536;45.488;12.238;2022-10-28T03:13:47;12.65;;;7.95;;
38787;SDS011;24536;45.488;12.238;2022-10-28T03:16:13;9.63;;;7.43;;
38787;SDS011;24536;45.488;12.238;2022-10-28T03:18:38;13.45;;;7.25;;
38787;SDS011;24536;45.488;12.238;2022-10-28T03:21:04;10.13;;;7.38;;
38787;SDS011;24536;45.488;12.238;2022-10-28T03:23:30;16.25;;;7.32;;
38787;SDS011;24536;45.488;12.238;2022-10-28T03:25:55;11.82;;;7.40;;
38787;SDS011;24536;45.488;12.238;2022-10-28T03:28:21;11.35;;;7.13;;
38787;SDS011;24536;45.488;12.238;2022-10-28T03:30:46;13.70;;;8.20;;
38787;SDS011;24536;45.488;12.238;2022-10-28T03:33:12;9.38;;;7.57;;
38787;SDS011;24536;45.488;12.238;2022-10-28T03:35:38;12.35;;;8.32;;
38787;SDS011;24536;45.488;12.238;2022-10-28T03:38:04;13.60;;;8.18;;
38787;SDS011;24536;45.488;12.238;2022-10-28T03:40:29;9.65;;;7.40;;
38787;SDS011;24536;45.488;12.238;2022-10-28T03:42:55;11.45;;;7.28;;
38787;SDS011;24536;45.488;12.238;2022-10-28T03:45:21;10.30;;;7.10;;
38787;SDS011;24536;45.488;12.238;2022-10-28T03:47:46;11.57;;;7.18;;
38787;SDS011;24536;45.488;12.238;2022-10-28T03:50:12;12.13;;;7.22;;
38787;SDS011;24536;45.488;12.238;2022-10-28T03:52:38;11.50;;;7.30;;
38787;SDS011;24536;45.488;12.238;2022-10-28T03:55:03;10.77;;;6.88;;
38787;SDS011;24536;45.488;12.238;2022-10-28T03:57:30;12.43;;;6.95;;
38787;SDS011;24536;45.488;12.238;2022-10-28T03:59:57;9.10;;;6.95;;
38787;SDS011;24536;45.488;12.238;2022-10-28T04:02:22;10.50;;;6.45;;
38787;SDS011;24536;45.488;12.238;2022-10-28T04:04:48;10.35;;;6.70;;
38787;SDS011;24536;45.488;12.238;2022-10-28T04:07:14;9.75;;;6.95;;
38787;SDS011;24536;45.488;12.238;2022-10-28T04:09:40;10.20;;;6.90;;
38787;SDS011;24536;45.488;12.238;2022-10-28T04:12:05;8.57;;;6.40;;
38787;SDS011;24536;45.488;12.238;2022-10-28T04:14:31;11.77;;;7.10;;
38787;SDS011;24536;45.488;12.238;2022-10-28T04:16:57;8.20;;;6.50;;
38787;SDS011;24536;45.488;12.238;2022-10-28T04:19:22;9.38;;;6.43;;
38787;SDS011;24536;45.488;12.238;2022-10-28T04:21:48;10.82;;;6.93;;
38787;SDS011;24536;45.488;12.238;2022-10-28T04:24:14;9.18;;;6.85;;
38787;SDS011;24536;45.488;12.238;2022-10-28T04:26:39;6.75;;;6.03;;
38787;SDS011;24536;45.488;12.238;2022-10-28T04:29:05;10.48;;;6.45;;
38787;SDS011;24536;45.488;12.238;2022-10-28T04:31:31;9.05;;;6.30;;
38787;SDS011;24536;45.488;12.238;2022-10-28T04:33:56;9.93;;;6.32;;
38787;SDS011;24536;45.488;12.238;2022-10-28T04:36:22;9.57;;;6.68;;
38787;SDS011;24536;45.488;12.238;2022-10-28T04:38:48;11.15;;;6.75;;
38787;SDS011;24536;45.488;12.238;2022-10-28T04:41:16;10.77;;;7.55;;
38787;SDS011;24536;45.488;12.238;2022-10-28T04:43:42;11.43;;;6.82;;
38787;SDS011;24536;45.488;12.238;2022-10-28T04:46:08;9.48;;;6.32;;
38787;SDS011;24536;45.488;12.238;2022-10-28T04:48:34;9.95;;;6.90;;
38787;SDS011;24536;45.488;12.238;2022-10-28T04:51:00;10.45;;;7.10;;
38787;SDS011;24536;45.488;12.238;2022-10-28T04:53:26;11.57;;;6.93;;
38787;SDS011;24536;45.488;12.238;2022-10-28T04:55:55;11.63;;;7.25;;
38787;SDS011;24536;45.488;12.238;2022-10-28T05:00:47;11.07;;;6.82;;
38787;SDS011;24536;45.488;12.238;2022-10-28T05:03:13;8.52;;;6.22;;
38787;SDS011;24536;45.488;12.238;2022-10-28T05:05:39;8.52;;;6.30;;
38787;SDS011;24536;45.488;12.238;2022-10-28T05:08:05;10.73;;;6.30;;
38787;SDS011;24536;45.488;12.238;2022-10-28T05:10:35;15.48;;;6.45;;
38787;SDS011;24536;45.488;12.238;2022-10-28T05:13:16;8.55;;;5.97;;
38787;SDS011;24536;45.488;12.238;2022-10-28T05:15:42;7.97;;;6.13;;
38787;SDS011;24536;45.488;12.238;2022-10-28T05:18:08;9.68;;;6.60;;
38787;SDS011;24536;45.488;12.238;2022-10-28T05:20:33;12.48;;;6.93;;
38787;SDS011;24536;45.488;12.238;2022-10-28T05:22:59;10.80;;;6.32;;
38787;SDS011;24536;45.488;12.238;2022-10-28T05:25:25;9.90;;;6.35;;
38787;SDS011;24536;45.488;12.238;2022-10-28T05:27:51;8.60;;;5.07;;
38787;SDS011;24536;45.488;12.238;2022-10-28T05:30:17;9.30;;;5.68;;
38787;SDS011;24536;45.488;12.238;2022-10-28T05:32:42;10.65;;;5.45;;
38787;SDS011;24536;45.488;12.238;2022-10-28T05:35:09;6.72;;;4.75;;
38787;SDS011;24536;45.488;12.238;2022-10-28T05:37:34;10.40;;;5.95;;
38787;SDS011;24536;45.488;12.238;2022-10-28T05:40:00;9.13;;;5.55;;
38787;SDS011;24536;45.488;12.238;2022-10-28T05:42:27;10.25;;;5.72;;
38787;SDS011;24536;45.488;12.238;2022-10-28T05:44:52;7.78;;;5.72;;
38787;SDS011;24536;45.488;12.238;2022-10-28T05:47:18;9.57;;;6.20;;
38787;SDS011;24536;45.488;12.238;2022-10-28T05:49:44;10.73;;;5.70;;
38787;SDS011;24536;45.488;12.238;2022-10-28T05:52:09;7.20;;;5.75;;
38787;SDS011;24536;45.488;12.238;2022-10-28T05:54:35;7.80;;;5.93;;
38787;SDS011;24536;45.488;12.238;2022-10-28T05:57:00;12.52;;;6.43;;
38787;SDS011;24536;45.488;12.238;2022-10-28T05:59:26;8.75;;;5.53;;
38787;SDS011;24536;45.488;12.238;2022-10-28T06:01:52;7.28;;;5.18;;
38787;SDS011;24536;45.488;12.238;2022-10-28T06:04:17;6.57;;;5.35;;
38787;SDS011;24536;45.488;12.238;2022-10-28T06:06:43;6.47;;;5.43;;
38787;SDS011;24536;45.488;12.238;2022-10-28T06:09:09;8.68;;;5.38;;
38787;SDS011;24536;45.488;12.238;2022-10-28T06:11:34;9.73;;;5.95;;
38787;SDS011;24536;45.488;12.238;2022-10-28T06:14:00;9.23;;;6.00;;
38787;SDS011;24536;45.488;12.238;2022-10-28T06:16:26;7.72;;;5.72;;
38787;SDS011;24536;45.488;12.238;2022-10-28T06:18:52;11.13;;;6.10;;
38787;SDS011;24536;45.488;12.238;2022-10-28T06:21:17;10.38;;;5.38;;
38787;SDS011;24536;45.488;12.238;2022-10-28T06:23:45;9.68;;;5.55;;
38787;SDS011;24536;45.488;12.238;2022-10-28T06:26:12;9.20;;;5.63;;
38787;SDS011;24536;45.488;12.238;2022-10-28T06:28:38;7.28;;;5.28;;
38787;SDS011;24536;45.488;12.238;2022-10-28T06:31:04;9.32;;;5.97;;
38787;SDS011;24536;45.488;12.238;2022-10-28T06:33:33;13.77;;;5.68;;
38787;SDS011;24536;45.488;12.238;2022-10-28T06:35:59;8.20;;;5.60;;
38787;SDS011;24536;45.488;12.238;2022-10-28T06:38:26;12.02;;;5.88;;
38787;SDS011;24536;45.488;12.238;2022-10-28T06:40:52;9.70;;;5.85;;
38787;SDS011;24536;45.488;12.238;2022-10-28T06:43:18;7.63;;;5.88;;
38787;SDS011;24536;45.488;12.238;2022-10-28T06:45:44;9.07;;;5.47;;
38787;SDS011;24536;45.488;12.238;2022-10-28T06:48:17;7.97;;;5.65;;
38787;SDS011;24536;45.488;12.238;2022-10-28T06:50:43;11.30;;;5.93;;
38787;SDS011;24536;45.488;12.238;2022-10-28T06:53:09;10.48;;;5.80;;
38787;SDS011;24536;45.488;12.238;2022-10-28T06:55:35;9.75;;;6.60;;
38787;SDS011;24536;45.488;12.238;2022-10-28T06:58:04;13.48;;;6.05;;
38787;SDS011;24536;45.488;12.238;2022-10-28T07:00:30;14.02;;;6.20;;
38787;SDS011;24536;45.488;12.238;2022-10-28T07:02:58;9.50;;;5.55;;
38787;SDS011;24536;45.488;12.238;2022-10-28T07:05:25;8.00;;;6.10;;
38787;SDS011;24536;45.488;12.238;2022-10-28T07:07:53;8.07;;;5.72;;
38787;SDS011;24536;45.488;12.238;2022-10-28T07:10:22;9.30;;;6.32;;
38787;SDS011;24536;45.488;12.238;2022-10-28T07:12:50;10.85;;;6.32;;
38787;SDS011;24536;45.488;12.238;2022-10-28T07:15:16;7.78;;;5.50;;
38787;SDS011;24536;45.488;12.238;2022-10-28T07:17:42;9.63;;;6.03;;
38787;SDS011;24536;45.488;12.238;2022-10-28T07:20:08;9.15;;;5.70;;
38787;SDS011;24536;45.488;12.238;2022-10-28T07:22:35;8.63;;;5.43;;
38787;SDS011;24536;45.488;12.238;2022-10-28T07:25:00;17.92;;;5.88;;
38787;SDS011;24536;45.488;12.238;2022-10-28T07:27:26;10.60;;;5.22;;
38787;SDS011;24536;45.488;12.238;2022-10-28T07:29:51;8.82;;;5.60;;
38787;SDS011;24536;45.488;12.238;2022-10-28T07:32:17;12.02;;;5.03;;
38787;SDS011;24536;45.488;12.238;2022-10-28T07:34:43;8.15;;;4.15;;
38787;SDS011;24536;45.488;12.238;2022-10-28T07:37:09;6.75;;;4.40;;
38787;SDS011;24536;45.488;12.238;2022-10-28T07:39:36;8.85;;;4.80;;
38787;SDS011;24536;45.488;12.238;2022-10-28T07:42:02;10.75;;;4.00;;
38787;SDS011;24536;45.488;12.238;2022-10-28T07:44:28;18.83;;;5.57;;
38787;SDS011;24536;45.488;12.238;2022-10-28T07:46:53;8.05;;;3.70;;
38787;SDS011;24536;45.488;12.238;2022-10-28T07:49:19;13.55;;;4.70;;
38787;SDS011;24536;45.488;12.238;2022-10-28T07:51:45;6.40;;;3.97;;
38787;SDS011;24536;45.488;12.238;2022-10-28T07:54:13;8.10;;;3.78;;
38787;SDS011;24536;45.488;12.238;2022-10-28T07:56:39;6.65;;;3.08;;
38787;SDS011;24536;45.488;12.238;2022-10-28T07:59:04;7.25;;;3.00;;
38787;SDS011;24536;45.488;12.238;2022-10-28T08:01:30;6.55;;;2.90;;
38787;SDS011;24536;45.488;12.238;2022-10-28T08:03:56;5.30;;;2.47;;
38787;SDS011;24536;45.488;12.238;2022-10-28T08:06:21;6.20;;;2.72;;
38787;SDS011;24536;45.488;12.238;2022-10-28T08:08:48;4.82;;;2.60;;
38787;SDS011;24536;45.488;12.238;2022-10-28T08:11:18;8.32;;;2.40;;
38787;SDS011;24536;45.488;12.238;2022-10-28T08:13:47;3.88;;;2.20;;
38787;SDS011;24536;45.488;12.238;2022-10-28T08:16:13;7.00;;;2.20;;
38787;SDS011;24536;45.488;12.238;2022-10-28T08:18:39;6.68;;;2.17;;
38787;SDS011;24536;45.488;12.238;2022-10-28T08:21:06;5.45;;;2.03;;
38787;SDS011;24536;45.488;12.238;2022-10-28T08:23:34;5.35;;;2.00;;
38787;SDS011;24536;45.488;12.238;2022-10-28T08:26:01;6.43;;;2.58;;
38787;SDS011;24536;45.488;12.238;2022-10-28T08:28:27;6.20;;;3.47;;
38787;SDS011;24536;45.488;12.238;2022-10-28T08:30:52;5.70;;;2.83;;
38787;SDS011;24536;45.488;12.238;2022-10-28T08:33:24;8.02;;;3.72;;
38787;SDS011;24536;45.488;12.238;2022-10-28T08:35:49;5.53;;;3.80;;
38787;SDS011;24536;45.488;12.238;2022-10-28T08:38:15;6.40;;;3.50;;
38787;SDS011;24536;45.488;12.238;2022-10-28T08:46:22;8.25;;;3.45;;
38787;SDS011;24536;45.488;12.238;2022-10-28T08:52:07;5.07;;;3.42;;
38787;SDS011;24536;45.488;12.238;2022-10-28T08:54:05;7.28;;;4.00;;
38787;SDS011;24536;45.488;12.238;2022-10-28T08:56:42;8.43;;;3.88;;
38787;SDS011;24536;45.488;12.238;2022-10-28T08:59:32;4.10;;;3.03;;
38787;SDS011;24536;45.488;12.238;2022-10-28T09:02:00;5.43;;;4.10;;
38787;SDS011;24536;45.488;12.238;2022-10-28T09:04:39;7.05;;;3.53;;
38787;SDS011;24536;45.488;12.238;2022-10-28T09:07:08;6.00;;;3.90;;
38787;SDS011;24536;45.488;12.238;2022-10-28T09:09:43;7.47;;;3.92;;
38787;SDS011;24536;45.488;12.238;2022-10-28T09:22:56;6.38;;;4.18;;
38787;SDS011;24536;45.488;12.238;2022-10-28T09:25:45;7.30;;;4.47;;
38787;SDS011;24536;45.488;12.238;2022-10-28T09:34:43;6.55;;;4.00;;
38787;SDS011;24536;45.488;12.238;2022-10-28T09:39:46;5.15;;;3.92;;
38787;SDS011;24536;45.488;12.238;2022-10-28T09:42:30;5.53;;;3.83;;
38787;SDS011;24536;45.488;12.238;2022-10-28T09:45:13;13.55;;;4.70;;
38787;SDS011;24536;45.488;12.238;2022-10-28T09:47:50;6.53;;;4.05;;
38787;SDS011;24536;45.488;12.238;2022-10-28T09:50:30;8.75;;;4.32;;
38787;SDS011;24536;45.488;12.238;2022-10-28T09:58:13;5.72;;;3.55;;
38787;SDS011;24536;45.488;12.238;2022-10-28T10:00:40;5.60;;;2.80;;
38787;SDS011;24536;45.488;12.238;2022-10-28T10:03:06;6.43;;;2.97;;
38787;SDS011;24536;45.488;12.238;2022-10-28T10:05:32;6.70;;;3.83;;
38787;SDS011;24536;45.488;12.238;2022-10-28T10:08:04;5.85;;;3.33;;
38787;SDS011;24536;45.488;12.238;2022-10-28T10:13:33;6.10;;;3.25;;
38787;SDS011;24536;45.488;12.238;2022-10-28T10:18:37;8.43;;;3.00;;
38787;SDS011;24536;45.488;12.238;2022-10-28T10:21:10;5.07;;;2.78;;
38787;SDS011;24536;45.488;12.238;2022-10-28T10:23:36;5.25;;;2.20;;
38787;SDS011;24536;45.488;12.238;2022-10-28T10:26:03;3.83;;;2.45;;
38787;SDS011;24536;45.488;12.238;2022-10-28T10:28:44;4.65;;;2.90;;
38787;SDS011;24536;45.488;12.238;2022-10-28T10:31:19;6.97;;;2.88;;
38787;SDS011;24536;45.488;12.238;2022-10-28T10:33:55;4.05;;;2.60;;
38787;SDS011;24536;45.488;12.238;2022-10-28T10:36:23;4.15;;;2.38;;
38787;SDS011;24536;45.488;12.238;2022-10-28T10:38:56;5.07;;;2.40;;
38787;SDS011;24536;45.488;12.238;2022-10-28T10:41:58;4.45;;;2.20;;
38787;SDS011;24536;45.488;12.238;2022-10-28T10:49:37;6.15;;;1.88;;
38787;SDS011;24536;45.488;12.238;2022-10-28T10:52:21;9.30;;;3.05;;
38787;SDS011;24536;45.488;12.238;2022-10-28T10:55:03;2.67;;;2.10;;
38787;SDS011;24536;45.488;12.238;2022-10-28T10:57:32;10.48;;;2.58;;
38787;SDS011;24536;45.488;12.238;2022-10-28T10:59:58;6.78;;;2.63;;
38787;SDS011;24536;45.488;12.238;2022-10-28T11:02:31;3.67;;;2.00;;
38787;SDS011;24536;45.488;12.238;2022-10-28T11:05:04;4.95;;;2.10;;
38787;SDS011;24536;45.488;12.238;2022-10-28T11:07:32;5.53;;;2.53;;
38787;SDS011;24536;45.488;12.238;2022-10-28T11:10:00;4.10;;;1.70;;
38787;SDS011;24536;45.488;12.238;2022-10-28T11:12:27;5.03;;;2.20;;
38787;SDS011;24536;45.488;12.238;2022-10-28T11:14:57;9.57;;;2.53;;
38787;SDS011;24536;45.488;12.238;2022-10-28T11:17:25;4.70;;;2.45;;
38787;SDS011;24536;45.488;12.238;2022-10-28T11:19:53;5.53;;;2.35;;
38787;SDS011;24536;45.488;12.238;2022-10-28T11:30:52;8.70;;;2.40;;
38787;SDS011;24536;45.488;12.238;2022-10-28T11:33:52;5.43;;;2.13;;
38787;SDS011;24536;45.488;12.238;2022-10-28T11:36:35;7.22;;;1.92;;
38787;SDS011;24536;45.488;12.238;2022-10-28T11:39:18;17.70;;;2.70;;
38787;SDS011;24536;45.488;12.238;2022-10-28T11:47:22;4.32;;;2.00;;
38787;SDS011;24536;45.488;12.238;2022-10-28T11:58:31;16.42;;;4.38;;
38787;SDS011;24536;45.488;12.238;2022-10-28T12:15:16;13.40;;;6.82;;
38787;SDS011;24536;45.488;12.238;2022-10-28T12:17:55;8.23;;;6.28;;
38787;SDS011;24536;45.488;12.238;2022-10-28T12:23:01;13.82;;;7.53;;
38787;SDS011;24536;45.488;12.238;2022-10-28T12:25:32;13.80;;;6.97;;
38787;SDS011;24536;45.488;12.238;2022-10-28T12:28:01;9.15;;;6.07;;
38787;SDS011;24536;45.488;12.238;2022-10-28T12:30:33;11.35;;;6.50;;
38787;SDS011;24536;45.488;12.238;2022-10-28T12:42:24;11.18;;;6.72;;
38787;SDS011;24536;45.488;12.238;2022-10-28T12:44:57;17.80;;;8.02;;
38787;SDS011;24536;45.488;12.238;2022-10-28T12:47:31;11.65;;;6.85;;
38787;SDS011;24536;45.488;12.238;2022-10-28T12:58:00;14.27;;;7.70;;
38787;SDS011;24536;45.488;12.238;2022-10-28T13:00:39;9.50;;;6.88;;
38787;SDS011;24536;45.488;12.238;2022-10-28T13:03:13;11.13;;;6.50;;
38787;SDS011;24536;45.488;12.238;2022-10-28T13:08:12;13.65;;;6.53;;
38787;SDS011;24536;45.488;12.238;2022-10-28T13:10:41;11.05;;;6.78;;
38787;SDS011;24536;45.488;12.238;2022-10-28T13:16:49;11.60;;;6.55;;
38787;SDS011;24536;45.488;12.238;2022-10-28T13:27:55;12.10;;;7.43;;
38787;SDS011;24536;45.488;12.238;2022-10-28T13:30:23;12.82;;;6.78;;
38787;SDS011;24536;45.488;12.238;2022-10-28T13:32:58;10.35;;;6.35;;
38787;SDS011;24536;45.488;12.238;2022-10-28T13:35:25;10.88;;;6.82;;
38787;SDS011;24536;45.488;12.238;2022-10-28T13:37:52;12.20;;;7.03;;
38787;SDS011;24536;45.488;12.238;2022-10-28T13:42:58;11.23;;;6.22;;
38787;SDS011;24536;45.488;12.238;2022-10-28T13:56:09;7.90;;;5.10;;
38787;SDS011;24536;45.488;12.238;2022-10-28T13:58:49;10.82;;;5.65;;
38787;SDS011;24536;45.488;12.238;2022-10-28T14:04:03;7.70;;;4.85;;
38787;SDS011;24536;45.488;12.238;2022-10-28T14:06:30;12.68;;;5.03;;
38787;SDS011;24536;45.488;12.238;2022-10-28T14:08:59;6.82;;;4.28;;
38787;SDS011;24536;45.488;12.238;2022-10-28T14:11:25;13.63;;;4.88;;
38787;SDS011;24536;45.488;12.238;2022-10-28T14:13:58;8.20;;;4.88;;
38787;SDS011;24536;45.488;12.238;2022-10-28T14:16:31;16.38;;;4.75;;
38787;SDS011;24536;45.488;12.238;2022-10-28T14:19:04;13.10;;;5.60;;
38787;SDS011;24536;45.488;12.238;2022-10-28T14:21:44;11.25;;;5.30;;
38787;SDS011;24536;45.488;12.238;2022-10-28T14:24:34;11.75;;;5.75;;
38787;SDS011;24536;45.488;12.238;2022-10-28T14:40:49;15.60;;;5.45;;
38787;SDS011;24536;45.488;12.238;2022-10-28T14:51:11;11.90;;;6.53;;
38787;SDS011;24536;45.488;12.238;2022-10-28T14:53:42;18.90;;;8.07;;
38787;SDS011;24536;45.488;12.238;2022-10-28T14:56:14;24.50;;;7.20;;
38787;SDS011;24536;45.488;12.238;2022-10-28T14:58:44;13.82;;;6.82;;
38787;SDS011;24536;45.488;12.238;2022-10-28T15:01:17;16.05;;;6.50;;
38787;SDS011;24536;45.488;12.238;2022-10-28T15:03:52;18.33;;;7.60;;
38787;SDS011;24536;45.488;12.238;2022-10-28T15:09:02;18.77;;;7.60;;
38787;SDS011;24536;45.488;12.238;2022-10-28T15:12:03;14.98;;;7.55;;
38787;SDS011;24536;45.488;12.238;2022-10-28T15:17:17;20.88;;;8.93;;
38787;SDS011;24536;45.488;12.238;2022-10-28T15:19:46;14.47;;;9.07;;
38787;SDS011;24536;45.488;12.238;2022-10-28T15:22:16;14.25;;;8.27;;
38787;SDS011;24536;45.488;12.238;2022-10-28T15:24:54;14.32;;;9.43;;
38787;SDS011;24536;45.488;12.238;2022-10-28T15:27:25;15.77;;;9.23;;
38787;SDS011;24536;45.488;12.238;2022-10-28T15:30:02;12.95;;;8.18;;
38787;SDS011;24536;45.488;12.238;2022-10-28T15:32:30;15.20;;;8.82;;
38787;SDS011;24536;45.488;12.238;2022-10-28T15:34:56;14.30;;;8.13;;
38787;SDS011;24536;45.488;12.238;2022-10-28T15:37:23;15.45;;;8.18;;
38787;SDS011;24536;45.488;12.238;2022-10-28T15:40:39;14.15;;;8.43;;
38787;SDS011;24536;45.488;12.238;2022-10-28T15:43:04;15.52;;;8.95;;
38787;SDS011;24536;45.488;12.238;2022-10-28T15:45:40;15.65;;;8.80;;
38787;SDS011;24536;45.488;12.238;2022-10-28T15:48:10;13.30;;;8.38;;
38787;SDS011;24536;45.488;12.238;2022-10-28T15:50:38;20.17;;;7.68;;
38787;SDS011;24536;45.488;12.238;2022-10-28T15:56:07;15.57;;;8.88;;
38787;SDS011;24536;45.488;12.238;2022-10-28T15:58:59;15.85;;;8.15;;
38787;SDS011;24536;45.488;12.238;2022-10-28T16:01:26;14.15;;;7.50;;
38787;SDS011;24536;45.488;12.238;2022-10-28T16:03:54;13.83;;;8.83;;
38787;SDS011;24536;45.488;12.238;2022-10-28T16:08:45;17.45;;;9.25;;
38787;SDS011;24536;45.488;12.238;2022-10-28T16:11:12;16.83;;;9.38;;
38787;SDS011;24536;45.488;12.238;2022-10-28T16:13:46;17.08;;;10.20;;
38787;SDS011;24536;45.488;12.238;2022-10-28T16:16:28;18.38;;;9.88;;
38787;SDS011;24536;45.488;12.238;2022-10-28T16:19:06;15.38;;;9.07;;
38787;SDS011;24536;45.488;12.238;2022-10-28T16:21:34;13.48;;;8.55;;
38787;SDS011;24536;45.488;12.238;2022-10-28T16:24:01;13.23;;;8.13;;
38787;SDS011;24536;45.488;12.238;2022-10-28T16:26:29;12.80;;;8.00;;
38787;SDS011;24536;45.488;12.238;2022-10-28T16:28:55;19.35;;;8.32;;
38787;SDS011;24536;45.488;12.238;2022-10-28T16:31:21;13.45;;;8.48;;
38787;SDS011;24536;45.488;12.238;2022-10-28T16:33:51;15.60;;;8.43;;
38787;SDS011;24536;45.488;12.238;2022-10-28T16:36:17;15.10;;;9.15;;
38787;SDS011;24536;45.488;12.238;2022-10-28T16:38:42;16.70;;;9.02;;
38787;SDS011;24536;45.488;12.238;2022-10-28T16:41:17;14.98;;;8.90;;
38787;SDS011;24536;45.488;12.238;2022-10-28T16:43:43;18.42;;;8.57;;
38787;SDS011;24536;45.488;12.238;2022-10-28T16:46:10;15.60;;;9.90;;
38787;SDS011;24536;45.488;12.238;2022-10-28T16:48:37;14.57;;;9.57;;
38787;SDS011;24536;45.488;12.238;2022-10-28T16:51:04;13.10;;;9.10;;
38787;SDS011;24536;45.488;12.238;2022-10-28T16:53:35;17.88;;;10.23;;
38787;SDS011;24536;45.488;12.238;2022-10-28T16:56:02;21.67;;;11.05;;
38787;SDS011;24536;45.488;12.238;2022-10-28T16:58:29;20.15;;;9.90;;
38787;SDS011;24536;45.488;12.238;2022-10-28T17:00:57;15.05;;;9.98;;
38787;SDS011;24536;45.488;12.238;2022-10-28T17:03:24;19.30;;;9.10;;
38787;SDS011;24536;45.488;12.238;2022-10-28T17:05:49;15.95;;;10.18;;
38787;SDS011;24536;45.488;12.238;2022-10-28T17:08:15;16.48;;;8.85;;
38787;SDS011;24536;45.488;12.238;2022-10-28T17:10:41;17.17;;;9.88;;
38787;SDS011;24536;45.488;12.238;2022-10-28T17:13:11;17.48;;;9.60;;
38787;SDS011;24536;45.488;12.238;2022-10-28T17:18:03;18.00;;;9.32;;
38787;SDS011;24536;45.488;12.238;2022-10-28T17:20:29;18.38;;;8.80;;
38787;SDS011;24536;45.488;12.238;2022-10-28T17:22:55;14.35;;;9.38;;
38787;SDS011;24536;45.488;12.238;2022-10-28T17:25:22;14.88;;;8.38;;
38787;SDS011;24536;45.488;12.238;2022-10-28T17:27:48;22.83;;;8.80;;
38787;SDS011;24536;45.488;12.238;2022-10-28T17:30:15;20.48;;;9.13;;
38787;SDS011;24536;45.488;12.238;2022-10-28T17:32:42;18.00;;;8.70;;
38787;SDS011;24536;45.488;12.238;2022-10-28T17:35:08;21.75;;;9.50;;
38787;SDS011;24536;45.488;12.238;2022-10-28T17:37:34;19.70;;;9.20;;
38787;SDS011;24536;45.488;12.238;2022-10-28T17:40:00;18.95;;;8.48;;
38787;SDS011;24536;45.488;12.238;2022-10-28T17:42:26;16.48;;;9.20;;
38787;SDS011;24536;45.488;12.238;2022-10-28T17:44:52;15.77;;;8.32;;
38787;SDS011;24536;45.488;12.238;2022-10-28T17:47:18;23.02;;;9.32;;
38787;SDS011;24536;45.488;12.238;2022-10-28T17:49:44;13.43;;;8.07;;
38787;SDS011;24536;45.488;12.238;2022-10-28T17:52:10;16.42;;;8.93;;
38787;SDS011;24536;45.488;12.238;2022-10-28T17:54:36;24.70;;;9.30;;
38787;SDS011;24536;45.488;12.238;2022-10-28T17:57:02;19.75;;;8.90;;
38787;SDS011;24536;45.488;12.238;2022-10-28T17:59:27;22.55;;;9.98;;
38787;SDS011;24536;45.488;12.238;2022-10-28T18:01:53;16.40;;;8.30;;